Time;durP1;ratioP1;P1;durP2;ratioP2;P2;SDS_P1;SDS_P2;PMS_P1;PMS_P2;Temp;Humidity;BMP_temperature;BMP_pressure;BME280_temperature;BME280_humidity;BME280_pressure;Samples;Min_cycle;Max_cycle;Signal;HPM_P1;HPM_P2
2022/07/31 00:00:43;;;;;;;4.95;2.83;;;;;;;22.91;80.84;101040.81;5006506;28;20649;-66
2022/07/31 00:03:09;;;;;;;5.53;2.95;;;;;;;22.91;81.56;101040.03;5010311;28;20040;-67
2022/07/31 00:05:35;;;;;;;6.30;2.78;;;;;;;22.91;81.13;101043.56;5009088;28;20084;-66
2022/07/31 00:08:01;;;;;;;5.45;2.88;;;;;;;22.81;82.05;101044.56;5010513;28;20034;-66
2022/07/31 00:10:27;;;;;;;5.45;3.33;;;;;;;22.85;81.51;101039.78;5004832;28;20065;-66
2022/07/31 00:12:52;;;;;;;3.88;2.53;;;;;;;22.80;82.18;101037.53;5010335;28;20041;-66
2022/07/31 00:15:18;;;;;;;4.10;2.38;;;;;;;22.65;82.86;101033.56;4995169;28;20047;-66
2022/07/31 00:17:45;;;;;;;7.35;3.17;;;;;;;22.70;82.88;101033.06;5006936;28;20033;-66
2022/07/31 00:20:13;;;;;;;5.63;3.00;;;;;;;22.73;82.79;101039.66;5009074;28;20398;-66
2022/07/31 00:22:43;;;;;;;10.50;2.58;;;;;;;22.73;82.35;101040.44;5010306;28;20410;-67
2022/07/31 00:25:10;;;;;;;4.97;2.70;;;;;;;22.61;83.18;101037.63;5011334;28;20045;-67
2022/07/31 00:27:36;;;;;;;5.03;2.60;;;;;;;22.75;82.07;101040.00;5007897;28;20052;-66
2022/07/31 00:30:02;;;;;;;4.70;2.78;;;;;;;22.72;82.60;101036.16;5010064;28;20766;-66
2022/07/31 00:32:27;;;;;;;9.13;3.05;;;;;;;22.69;82.75;101036.22;5009922;28;20026;-66
2022/07/31 00:34:53;;;;;;;5.45;2.80;;;;;;;22.64;82.75;101043.03;5011270;28;20030;-66
2022/07/31 00:37:18;;;;;;;9.27;3.15;;;;;;;22.58;82.93;101036.47;5003652;28;20033;-66
2022/07/31 00:39:44;;;;;;;4.18;2.40;;;;;;;22.48;83.39;101042.16;5011763;28;20318;-66
2022/07/31 00:42:23;;;;;;;7.40;2.85;;;;;;;22.45;83.23;101033.59;5012502;28;20167;-66
2022/07/31 00:44:49;;;;;;;5.78;3.22;;;;;;;22.35;84.07;101022.84;4994492;28;20045;-66
2022/07/31 00:47:16;;;;;;;6.05;2.92;;;;;;;22.24;84.16;101036.03;5009275;28;20036;-67
2022/07/31 00:49:42;;;;;;;4.35;2.75;;;;;;;22.26;84.30;101030.91;5016353;28;20491;-66
2022/07/31 00:52:07;;;;;;;6.05;2.42;;;;;;;22.22;84.51;101030.97;5025907;28;20034;-66
2022/07/31 00:54:34;;;;;;;4.78;2.85;;;;;;;22.16;84.58;101029.91;5000064;28;20042;-67
2022/07/31 00:57:00;;;;;;;5.13;2.70;;;;;;;22.13;84.86;101033.50;5010066;28;20029;-66
2022/07/31 00:59:29;;;;;;;5.85;2.78;;;;;;;22.12;84.95;101031.19;5012940;28;20061;-66
2022/07/31 01:01:56;;;;;;;4.38;2.90;;;;;;;22.11;85.00;101026.88;5013053;28;20021;-66
2022/07/31 01:04:21;;;;;;;7.47;2.83;;;;;;;22.16;84.95;101020.91;5002016;28;20026;-66
2022/07/31 01:06:48;;;;;;;6.43;2.83;;;;;;;22.19;84.60;101015.34;4998666;28;20030;-66
2022/07/31 01:09:15;;;;;;;6.63;2.75;;;;;;;22.10;84.65;101015.16;4992499;28;20696;-66
2022/07/31 01:11:49;;;;;;;4.03;2.70;;;;;;;22.13;84.72;101014.31;5006435;28;20034;-66
2022/07/31 01:14:16;;;;;;;5.20;2.80;;;;;;;22.12;84.80;101015.50;5011127;28;20414;-66
2022/07/31 01:16:46;;;;;;;6.35;2.58;;;;;;;22.05;85.16;101004.66;5010085;28;20034;-66
2022/07/31 01:19:27;;;;;;;9.18;2.75;;;;;;;21.95;85.33;101019.38;5015946;28;20038;-66
2022/07/31 01:21:57;;;;;;;8.55;3.78;;;;;;;21.88;85.37;101019.53;5004731;28;20454;-66
2022/07/31 01:24:41;;;;;;;4.40;2.63;;;;;;;21.82;85.43;101009.47;5006887;28;20041;-66
2022/07/31 01:27:49;;;;;;;5.55;3.35;;;;;;;21.81;85.50;101016.94;5012032;28;20029;-66
2022/07/31 01:30:16;;;;;;;3.78;2.08;;;;;;;21.80;85.54;101014.56;4978084;28;20050;-66
2022/07/31 01:32:46;;;;;;;3.20;2.42;;;;;;;21.85;85.52;101023.13;5014270;28;20022;-67
2022/07/31 01:35:23;;;;;;;4.38;2.67;;;;;;;21.75;85.79;101017.81;5004295;28;20132;-67
2022/07/31 01:38:00;;;;;;;6.22;2.70;;;;;;;21.73;86.00;101020.19;5016461;28;20038;-66
2022/07/31 01:40:35;;;;;;;9.95;3.10;;;;;;;21.64;86.14;101020.75;4993197;28;20121;-66
2022/07/31 01:43:13;;;;;;;5.22;2.55;;;;;;;21.61;86.00;101027.09;5005443;28;20475;-66
2022/07/31 01:45:41;;;;;;;10.35;2.85;;;;;;;21.61;86.45;101020.81;5007886;28;20044;-66
2022/07/31 01:48:12;;;;;;;5.50;2.90;;;;;;;21.65;86.02;101024.28;5012553;28;20161;-66
2022/07/31 01:50:42;;;;;;;4.07;2.40;;;;;;;21.65;86.09;101021.53;5010528;28;20034;-66
2022/07/31 01:53:11;;;;;;;4.78;2.72;;;;;;;21.64;86.29;101018.00;5024607;28;20606;-67
2022/07/31 01:55:40;;;;;;;4.22;2.67;;;;;;;21.64;86.08;101015.25;5006504;28;20448;-67
2022/07/31 01:58:08;;;;;;;6.63;2.80;;;;;;;21.60;86.05;101013.81;5010666;28;20030;-66
2022/07/31 02:00:35;;;;;;;6.57;2.80;;;;;;;21.64;85.80;101009.78;5012957;28;20066;-66
2022/07/31 02:03:02;;;;;;;7.93;2.75;;;;;;;21.67;85.18;101016.41;5008329;28;20033;-66
2022/07/31 02:05:29;;;;;;;4.05;2.85;;;;;;;21.58;86.20;101005.22;5016284;28;20030;-66
2022/07/31 02:07:55;;;;;;;4.72;2.75;;;;;;;21.52;86.45;101011.19;5005299;28;20044;-66
2022/07/31 02:10:25;;;;;;;6.45;2.63;;;;;;;21.56;86.51;101022.84;5017644;28;20038;-66
2022/07/31 02:12:51;;;;;;;8.27;3.33;;;;;;;21.56;86.14;101017.38;5006451;28;20033;-68
2022/07/31 02:15:21;;;;;;;4.80;3.30;;;;;;;21.50;86.58;101019.03;4997869;28;20050;-67
2022/07/31 02:17:49;;;;;;;6.70;2.88;;;;;;;21.54;86.86;101017.00;5001139;28;20030;-67
2022/07/31 02:20:22;;;;;;;5.68;3.22;;;;;;;21.53;86.88;101011.97;5011951;22;20085;-72
2022/07/31 02:22:49;;;;;;;5.35;2.97;;;;;;;21.47;86.74;101019.13;5009501;28;20052;-72
2022/07/31 02:25:14;;;;;;;5.38;2.95;;;;;;;21.45;86.77;101014.06;5009568;28;20128;-72
2022/07/31 02:27:42;;;;;;;6.85;3.03;;;;;;;21.51;86.70;101015.13;5010702;28;20115;-72
2022/07/31 02:30:12;;;;;;;7.07;3.33;;;;;;;21.45;86.74;101013.28;4987798;28;20411;-72
2022/07/31 02:32:39;;;;;;;7.95;3.33;;;;;;;21.46;86.43;101018.38;4988761;28;20176;-72
2022/07/31 02:35:07;;;;;;;8.73;3.78;;;;;;;21.46;86.60;101017.59;4985210;28;20034;-73
2022/07/31 02:37:36;;;;;;;6.32;3.72;;;;;;;21.44;85.98;101015.28;4990767;28;20033;-72
2022/07/31 02:40:03;;;;;;;5.75;3.20;;;;;;;21.46;86.21;101017.59;4990511;28;20511;-72
2022/07/31 02:42:30;;;;;;;5.03;3.50;;;;;;;21.42;85.98;101017.66;4990045;28;20092;-72
2022/07/31 02:44:56;;;;;;;7.63;3.50;;;;;;;21.35;86.63;101011.53;4982379;28;20540;-73
2022/07/31 02:47:25;;;;;;;6.20;3.28;;;;;;;21.32;86.48;101012.34;4989670;28;20497;-72
2022/07/31 02:49:51;;;;;;;6.13;3.13;;;;;;;21.23;87.25;101007.44;4990159;28;20062;-72
2022/07/31 02:52:16;;;;;;;5.50;3.10;;;;;;;21.16;87.85;101004.78;4986518;28;20037;-72
2022/07/31 02:54:44;;;;;;;7.38;4.25;;;;;;;21.13;87.92;101000.16;4989183;28;20037;-72
2022/07/31 02:57:09;;;;;;;5.68;3.20;;;;;;;21.13;87.70;100999.38;4991399;28;20072;-72
2022/07/31 02:59:36;;;;;;;6.40;2.92;;;;;;;21.09;87.81;100999.44;4989504;28;20031;-72
2022/07/31 03:02:02;;;;;;;5.28;3.20;;;;;;;21.12;87.89;100992.34;4989628;28;20502;-72
2022/07/31 03:04:30;;;;;;;4.57;3.30;;;;;;;21.10;87.93;100990.03;4989729;28;20034;-72
2022/07/31 03:06:55;;;;;;;5.93;3.80;;;;;;;21.09;87.73;100984.97;4988944;28;20061;-72
2022/07/31 03:09:21;;;;;;;8.25;3.33;;;;;;;21.08;87.73;100984.19;4986737;28;20065;-72
2022/07/31 03:11:53;;;;;;;6.43;3.63;;;;;;;21.01;87.68;100995.28;4989117;28;20034;-73
2022/07/31 03:14:22;;;;;;;10.80;3.90;;;;;;;20.95;87.97;100988.69;4985066;28;20066;-72
2022/07/31 03:16:50;;;;;;;6.65;3.30;;;;;;;20.93;88.11;100995.78;5003913;28;20458;-72
2022/07/31 03:19:18;;;;;;;8.35;3.22;;;;;;;20.89;87.88;100995.06;4989814;28;20030;-72
2022/07/31 03:21:44;;;;;;;4.35;2.97;;;;;;;20.80;87.74;100989.34;4988984;28;20042;-73
2022/07/31 03:24:10;;;;;;;6.20;3.35;;;;;;;20.74;88.39;100993.75;4989449;28;20081;-73
2022/07/31 03:26:36;;;;;;;5.18;2.85;;;;;;;20.65;88.70;100991.53;4988756;28;20034;-73
2022/07/31 03:29:03;;;;;;;7.57;3.78;;;;;;;20.61;88.95;100991.56;4989770;28;20038;-73
2022/07/31 03:31:29;;;;;;;5.10;3.15;;;;;;;20.48;89.13;100990.59;4989085;28;20030;-73
2022/07/31 03:33:55;;;;;;;8.68;3.53;;;;;;;20.54;89.23;100980.75;4988908;28;20053;-73
2022/07/31 03:36:23;;;;;;;6.70;3.95;;;;;;;20.55;89.19;100987.00;4983362;28;20085;-73
2022/07/31 03:38:48;;;;;;;7.72;3.40;;;;;;;20.55;88.85;100981.53;4989051;28;20054;-73
2022/07/31 03:41:23;;;;;;;7.03;2.90;;;;;;;20.51;89.22;100975.31;4990827;28;20034;-72
2022/07/31 03:43:49;;;;;;;4.88;2.92;;;;;;;20.50;89.22;100979.25;4989585;28;20096;-72
2022/07/31 03:46:20;;;;;;;6.13;3.17;;;;;;;20.52;89.35;100982.34;4989760;28;20038;-71
2022/07/31 03:48:46;;;;;;;5.38;3.17;;;;;;;20.45;88.86;100975.03;4989799;28;20061;-71
2022/07/31 03:51:13;;;;;;;6.25;3.28;;;;;;;20.42;89.34;100975.09;4990035;28;20077;-71
2022/07/31 03:53:40;;;;;;;5.75;3.00;;;;;;;20.32;89.76;100967.78;4988206;28;20113;-71
2022/07/31 03:56:06;;;;;;;5.65;2.95;;;;;;;20.24;90.07;100963.63;4989275;28;20030;-73
2022/07/31 03:58:33;;;;;;;4.90;3.05;;;;;;;20.28;90.10;100975.28;4989075;28;20034;-71
2022/07/31 04:00:59;;;;;;;7.43;3.70;;;;;;;20.23;90.60;100973.78;4991306;28;20029;-70
2022/07/31 04:03:29;;;;;;;5.65;3.40;;;;;;;20.39;89.56;100968.47;4985347;28;20035;-73
2022/07/31 04:06:15;;;;;;;5.72;3.40;;;;;;;20.35;89.77;100972.44;4984711;28;20104;-71
2022/07/31 04:08:41;;;;;;;5.82;3.55;;;;;;;20.31;89.96;100969.75;4989534;28;20030;-72
2022/07/31 04:11:06;;;;;;;5.90;3.40;;;;;;;20.28;90.36;100967.84;4992179;28;20073;-71
2022/07/31 04:13:32;;;;;;;4.68;2.92;;;;;;;20.23;90.43;100973.78;4990906;28;20503;-71
2022/07/31 04:15:57;;;;;;;7.32;3.80;;;;;;;20.26;90.43;100980.38;4987052;28;20030;-71
2022/07/31 04:18:23;;;;;;;8.60;3.30;;;;;;;20.20;90.61;100973.81;5005038;28;20026;-71
2022/07/31 04:20:49;;;;;;;6.50;3.75;;;;;;;20.19;91.01;100986.72;4989118;28;20026;-71
2022/07/31 04:23:15;;;;;;;6.25;3.33;;;;;;;20.23;90.87;100981.97;4992318;28;20030;-71
2022/07/31 04:26:03;;;;;;;5.88;3.17;;;;;;;20.32;90.65;100979.53;4993721;28;20026;-70
2022/07/31 04:28:35;;;;;;;7.05;3.28;;;;;;;20.37;91.01;100987.25;4992780;28;20035;-72
2022/07/31 04:31:00;;;;;;;4.60;3.15;;;;;;;20.43;91.36;100990.31;4989454;28;20034;-73
2022/07/31 04:33:29;;;;;;;6.35;3.50;;;;;;;20.46;91.85;100992.22;4991434;28;20543;-70
2022/07/31 04:35:54;;;;;;;5.40;3.10;;;;;;;20.55;91.87;100987.00;4984941;28;20121;-69
2022/07/31 04:38:20;;;;;;;5.72;3.08;;;;;;;20.64;91.88;100993.50;4989357;28;20426;-69
2022/07/31 04:40:47;;;;;;;5.13;2.95;;;;;;;20.69;92.48;100995.00;4991945;28;20406;-69
2022/07/31 04:43:13;;;;;;;7.93;3.58;;;;;;;20.78;92.26;101000.72;4990973;28;20026;-69
2022/07/31 04:45:42;;;;;;;8.10;4.00;;;;;;;20.86;92.16;101004.13;4990621;28;20093;-68
2022/07/31 04:48:09;;;;;;;7.10;3.67;;;;;;;20.91;91.75;100998.94;4993512;28;20514;-68
2022/07/31 04:50:35;;;;;;;6.28;3.47;;;;;;;20.90;91.59;101008.34;4992582;28;20473;-69
2022/07/31 04:53:01;;;;;;;8.43;4.07;;;;;;;20.93;91.62;101002.03;4993212;28;20450;-68
2022/07/31 04:55:32;;;;;;;6.82;3.83;;;;;;;20.99;91.38;100997.63;4991559;28;20043;-68
2022/07/31 04:57:57;;;;;;;9.32;3.92;;;;;;;20.76;91.83;100997.63;4992004;28;20038;-70
2022/07/31 05:00:24;;;;;;;8.20;4.45;;;;;;;20.82;91.92;101000.66;4986821;28;20955;-68
2022/07/31 05:02:50;;;;;;;8.82;3.80;;;;;;;20.97;91.19;101000.00;5006841;28;20045;-69
2022/07/31 05:05:17;;;;;;;8.20;4.00;;;;;;;21.01;91.47;101008.97;4990726;28;20539;-68
2022/07/31 05:07:43;;;;;;;7.03;3.83;;;;;;;21.04;91.88;101010.88;4991722;28;20045;-68
2022/07/31 05:13:00;;;;;;;6.07;3.92;;;;;;;21.10;91.78;101002.97;4989958;28;20033;-69
2022/07/31 05:15:27;;;;;;;5.43;3.75;;;;;;;21.20;91.56;101008.25;4989237;28;20041;-69
2022/07/31 05:17:54;;;;;;;7.05;3.88;;;;;;;21.27;91.28;101007.38;4991945;28;20398;-68
2022/07/31 05:20:40;;;;;;;9.75;4.47;;;;;;;21.27;90.61;101004.63;4972235;28;20049;-69
2022/07/31 05:23:26;;;;;;;11.18;4.20;;;;;;;21.21;91.05;101006.28;4981638;28;20129;-69
2022/07/31 05:25:59;;;;;;;8.77;4.60;;;;;;;21.28;90.71;101006.16;4989942;28;20045;-69
2022/07/31 05:28:24;;;;;;;7.15;4.20;;;;;;;21.36;90.34;100999.34;4991611;28;20042;-69
2022/07/31 05:30:50;;;;;;;8.35;4.30;;;;;;;21.33;90.91;100995.47;4990679;28;20188;-68
2022/07/31 05:33:16;;;;;;;10.90;5.15;;;;;;;21.40;90.35;100998.09;4987754;28;20044;-68
2022/07/31 05:35:42;;;;;;;12.55;4.82;;;;;;;21.42;89.97;101000.44;5003832;28;20030;-69
2022/07/31 05:38:08;;;;;;;7.75;3.83;;;;;;;21.47;90.06;100995.22;4989450;28;20556;-68
2022/07/31 05:40:49;;;;;;;10.27;4.68;;;;;;;21.56;90.50;101003.66;4990194;28;20034;-68
2022/07/31 05:43:38;;;;;;;7.07;4.13;;;;;;;21.65;89.24;100994.09;4991975;28;20065;-68
2022/07/31 05:46:13;;;;;;;11.32;4.90;;;;;;;21.68;89.05;100993.28;4989570;28;20037;-68
2022/07/31 05:48:40;;;;;;;9.18;4.63;;;;;;;21.70;89.12;100983.41;4995999;28;20034;-68
2022/07/31 05:51:09;;;;;;;7.95;4.03;;;;;;;21.69;89.28;100997.56;4990611;28;20475;-71
2022/07/31 05:53:36;;;;;;;7.43;4.68;;;;;;;21.73;88.86;100993.56;4987217;28;20042;-71
2022/07/31 05:56:24;;;;;;;12.43;5.28;;;;;;;21.81;88.46;100994.22;4990941;28;20038;-71
2022/07/31 05:58:51;;;;;;;9.65;4.75;;;;;;;21.76;88.41;100995.44;4932224;29;20115;-71
2022/07/31 06:01:17;;;;;;;11.75;5.22;;;;;;;21.72;88.16;100986.50;4948762;29;20036;-71
2022/07/31 06:03:42;;;;;;;9.93;4.97;;;;;;;21.70;88.60;100988.16;4941322;29;20043;-71
2022/07/31 06:06:16;;;;;;;7.03;4.50;;;;;;;21.71;88.07;100984.97;4978356;28;20070;-71
2022/07/31 06:08:42;;;;;;;12.55;4.75;;;;;;;21.72;89.55;100980.28;4970465;28;20030;-71
2022/07/31 06:11:08;;;;;;;11.63;4.47;;;;;;;21.65;88.45;100983.91;4970767;28;20046;-71
2022/07/31 06:13:35;;;;;;;9.20;4.53;;;;;;;21.66;88.53;100984.69;4943108;28;20056;-71
2022/07/31 06:16:13;;;;;;;7.38;4.22;;;;;;;21.68;88.51;100987.78;4948021;29;20048;-73
2022/07/31 06:18:39;;;;;;;9.40;4.72;;;;;;;21.82;88.39;101001.22;4932227;29;20040;-72
2022/07/31 06:21:05;;;;;;;8.98;4.70;;;;;;;21.90;88.13;100994.41;4934509;29;20086;-72
2022/07/31 06:23:31;;;;;;;9.10;4.53;;;;;;;21.89;87.40;101003.84;4955444;28;20047;-72
2022/07/31 06:26:05;;;;;;;10.20;4.80;;;;;;;21.89;87.38;100993.63;4944159;29;20046;-72
2022/07/31 06:28:31;;;;;;;9.93;4.53;;;;;;;22.04;87.53;100996.88;4967305;28;20508;-73
2022/07/31 06:30:56;;;;;;;7.05;3.67;;;;;;;22.09;86.96;100999.09;4947109;29;20587;-72
2022/07/31 06:33:22;;;;;;;9.60;3.95;;;;;;;22.22;87.08;101000.03;4932977;29;20039;-72
2022/07/31 06:35:48;;;;;;;7.20;4.35;;;;;;;22.28;85.85;101001.03;4977457;28;20491;-72
2022/07/31 06:38:32;;;;;;;10.00;3.58;;;;;;;22.31;86.16;100994.72;4991309;28;20527;-72
2022/07/31 06:44:24;;;;;;;6.50;3.55;;;;;;;22.41;85.10;100988.22;4979516;28;20116;-72
2022/07/31 06:47:08;;;;;;;6.72;3.35;;;;;;;22.38;84.96;100991.78;4991883;28;20099;-72
2022/07/31 06:49:52;;;;;;;7.93;3.92;;;;;;;22.45;84.48;100994.41;4992073;28;20089;-72
2022/07/31 06:52:18;;;;;;;5.95;2.92;;;;;;;22.46;84.66;100990.44;5006849;28;20034;-72
2022/07/31 06:54:44;;;;;;;5.80;3.50;;;;;;;22.34;82.95;100982.88;4972024;28;20372;-72
2022/07/31 06:57:10;;;;;;;9.68;3.72;;;;;;;22.26;83.52;100987.75;4987443;28;20042;-72
2022/07/31 06:59:36;;;;;;;6.90;3.72;;;;;;;21.97;84.43;100984.06;4972556;28;20070;-72
2022/07/31 07:02:01;;;;;;;7.35;3.17;;;;;;;22.01;84.43;100984.75;4987342;28;20495;-72
2022/07/31 07:04:27;;;;;;;7.07;3.25;;;;;;;22.23;83.65;100982.34;4971395;28;20419;-72
2022/07/31 07:06:52;;;;;;;5.90;3.40;;;;;;;22.21;84.11;100985.50;4972118;28;20089;-72
2022/07/31 07:09:18;;;;;;;6.55;3.42;;;;;;;22.31;84.62;100980.97;4982504;28;20499;-72
2022/07/31 07:11:46;;;;;;;8.68;3.35;;;;;;;22.43;83.82;100981.06;5006122;28;20037;-72
2022/07/31 07:14:12;;;;;;;7.03;3.22;;;;;;;22.53;82.35;100984.78;4990539;28;20042;-72
2022/07/31 07:16:38;;;;;;;7.32;3.50;;;;;;;22.47;81.61;100980.22;4995647;28;20046;-72
2022/07/31 07:19:03;;;;;;;8.35;3.42;;;;;;;22.33;82.97;100989.56;4972383;28;20031;-72
2022/07/31 07:21:30;;;;;;;7.65;2.88;;;;;;;22.54;82.93;100980.06;4970952;28;20077;-72
2022/07/31 07:23:56;;;;;;;7.18;2.92;;;;;;;22.41;82.61;100983.47;4971794;28;20041;-72
2022/07/31 07:26:42;;;;;;;3.88;2.72;;;;;;;22.71;82.91;100976.13;4971567;28;20043;-72
2022/07/31 07:29:09;;;;;;;3.63;2.58;;;;;;;22.91;81.44;100979.56;4987181;28;20037;-72
2022/07/31 07:31:35;;;;;;;5.28;2.92;;;;;;;22.93;79.98;100964.22;4986968;28;20577;-72
2022/07/31 07:34:01;;;;;;;5.03;2.90;;;;;;;23.04;79.78;100970.19;4994902;28;20129;-72
2022/07/31 07:36:27;;;;;;;3.90;2.42;;;;;;;23.22;78.76;100965.03;4991178;28;20038;-72
2022/07/31 07:38:58;;;;;;;4.68;2.30;;;;;;;23.37;77.79;100967.41;4994598;28;20511;-72
2022/07/31 07:41:24;;;;;;;7.40;2.40;;;;;;;23.46;77.17;100964.81;4986819;28;20058;-72
2022/07/31 07:43:50;;;;;;;4.15;2.30;;;;;;;23.50;76.29;100962.75;4991235;28;20109;-72
2022/07/31 07:46:15;;;;;;;6.57;2.20;;;;;;;23.51;75.61;100964.28;5002381;28;20518;-72
2022/07/31 07:48:49;;;;;;;3.50;2.40;;;;;;;23.59;74.78;100971.13;4974863;28;20411;-72
2022/07/31 07:51:17;;;;;;;2.20;1.95;;;;;;;23.58;74.26;100959.34;4972289;28;20045;-72
2022/07/31 07:53:51;;;;;;;4.85;2.65;;;;;;;23.55;73.91;100960.22;5006223;28;20058;-72
2022/07/31 07:56:35;;;;;;;4.72;2.05;;;;;;;23.35;73.42;100953.31;4975697;28;20360;-72
2022/07/31 07:59:19;;;;;;;6.15;2.30;;;;;;;23.36;74.31;100952.91;4989292;28;20056;-72
2022/07/31 08:02:03;;;;;;;3.58;2.20;;;;;;;23.32;74.25;100963.22;4990486;28;20136;-72
2022/07/31 08:04:31;;;;;;;2.65;1.60;;;;;;;23.28;74.60;100963.28;5008823;28;20278;-72
2022/07/31 08:06:56;;;;;;;2.58;1.58;;;;;;;23.52;74.68;100961.06;4992446;28;20034;-70
2022/07/31 08:09:25;;;;;;;4.65;1.92;;;;;;;23.67;75.26;100966.97;4990255;28;20030;-72
2022/07/31 08:12:09;;;;;;;2.67;1.85;;;;;;;23.71;73.03;100953.88;4991976;28;20041;-72
2022/07/31 08:15:01;;;;;;;;;;;;;;;23.80;72.16;100952.03;4984596;28;20042;-72
2022/07/31 08:17:45;;;;;;;2.35;1.55;;;;;;;23.90;71.79;100953.69;4991777;28;19921;-72
2022/07/31 08:20:11;;;;;;;3.13;1.83;;;;;;;23.93;70.10;100965.78;5042606;23;20500;-68
2022/07/31 08:22:36;;;;;;;3.20;1.73;;;;;;;24.06;70.05;100967.38;5047572;28;20032;-68
2022/07/31 08:25:02;;;;;;;7.15;2.00;;;;;;;24.16;70.34;100960.00;5058793;28;20087;-68
2022/07/31 08:27:29;;;;;;;7.68;2.60;;;;;;;24.19;69.47;100961.91;5049044;28;20083;-68
2022/07/31 08:29:58;;;;;;;2.13;1.52;;;;;;;24.23;69.54;100970.03;5048709;28;20026;-68
2022/07/31 08:32:26;;;;;;;2.60;1.90;;;;;;;24.22;70.04;100968.50;5034702;28;20063;-68
2022/07/31 08:35:10;;;;;;;2.50;2.00;;;;;;;24.06;69.43;100974.91;5032615;28;20099;-68
2022/07/31 08:37:39;;;;;;;2.38;1.60;;;;;;;23.89;68.32;100981.63;5030784;28;20037;-71
2022/07/31 08:40:05;;;;;;;5.22;2.00;;;;;;;23.90;69.25;100983.97;5031010;28;20037;-68
2022/07/31 08:42:31;;;;;;;3.40;1.80;;;;;;;23.90;69.66;100981.22;5051313;28;20049;-67
2022/07/31 08:44:57;;;;;;;2.85;1.63;;;;;;;23.86;69.44;100979.78;5031266;28;20076;-68
2022/07/31 08:47:30;;;;;;;2.03;1.50;;;;;;;23.95;69.43;100977.13;5040546;28;20125;-68
2022/07/31 08:50:02;;;;;;;1.88;1.40;;;;;;;24.01;68.80;100975.38;5031365;28;20295;-67
2022/07/31 08:52:31;;;;;;;2.20;1.30;;;;;;;24.00;67.56;100976.63;5049904;28;20092;-68
2022/07/31 08:55:06;;;;;;;2.50;1.60;;;;;;;24.08;66.17;100969.69;5037690;28;20017;-68
2022/07/31 08:57:33;;;;;;;1.75;1.30;;;;;;;24.12;66.00;100964.84;5032611;28;20116;-68
2022/07/31 08:59:58;;;;;;;4.72;1.25;;;;;;;23.90;64.35;100967.47;5046200;28;20029;-68
2022/07/31 09:02:24;;;;;;;4.40;1.48;;;;;;;24.01;64.61;100967.13;5037591;28;20040;-68
2022/07/31 09:05:16;;;;;;;2.30;1.05;;;;;;;24.15;65.43;100964.78;5019623;28;20524;-68
2022/07/31 09:07:42;;;;;;;2.13;1.02;;;;;;;24.04;64.47;100969.06;5027315;28;20152;-68
2022/07/31 09:10:20;;;;;;;2.72;1.17;;;;;;;24.14;63.21;100968.72;5029142;28;20065;-68
2022/07/31 09:12:46;;;;;;;1.10;1.00;;;;;;;24.28;63.89;100962.00;5042630;28;20397;-68
2022/07/31 09:15:23;;;;;;;1.08;0.80;;;;;;;24.40;62.62;100961.25;5026569;28;20031;-68
2022/07/31 09:17:49;;;;;;;1.50;0.90;;;;;;;24.42;62.34;100958.03;5021809;28;20057;-68
2022/07/31 09:20:23;;;;;;;1.13;0.90;;;;;;;24.43;61.35;100957.59;5038147;28;20033;-68
2022/07/31 09:23:08;;;;;;;1.25;1.00;;;;;;;24.52;62.92;100954.94;5034576;28;20116;-68
2022/07/31 09:25:37;;;;;;;1.17;1.02;;;;;;;24.58;62.57;100953.19;5027613;28;20394;-68
2022/07/31 09:28:05;;;;;;;2.80;1.30;;;;;;;24.78;62.99;100950.19;5032014;28;20030;-68
2022/07/31 09:30:33;;;;;;;1.33;1.23;;;;;;;24.77;62.46;100948.66;5035005;28;20056;-68
2022/07/31 09:33:17;;;;;;;1.33;1.20;;;;;;;24.97;63.35;100951.91;5039945;28;20041;-68
2022/07/31 09:36:04;;;;;;;1.13;1.00;;;;;;;25.14;62.71;100945.03;5030404;28;20072;-68
2022/07/31 09:38:40;;;;;;;1.30;1.10;;;;;;;25.18;62.47;100947.66;5033485;28;20513;-68
2022/07/31 09:41:22;;;;;;;3.38;1.02;;;;;;;24.95;58.96;100935.81;5017657;28;20049;-68
2022/07/31 09:43:59;;;;;;;1.83;1.13;;;;;;;25.11;60.04;100940.38;5038801;28;20029;-68
2022/07/31 09:46:26;;;;;;;2.67;1.75;;;;;;;25.23;60.94;100947.06;5046992;28;20103;-68
2022/07/31 09:48:54;;;;;;;1.52;1.27;;;;;;;25.35;59.49;100929.69;5029573;28;20312;-68
2022/07/31 09:51:21;;;;;;;1.02;0.93;;;;;;;25.43;60.02;100936.53;5028838;28;20124;-68
2022/07/31 09:53:51;;;;;;;1.92;1.10;;;;;;;25.17;58.43;100926.78;5036247;28;20112;-68
2022/07/31 09:56:36;;;;;;;3.35;1.20;;;;;;;24.63;58.22;100924.28;5019601;28;20056;-68
2022/07/31 09:59:02;;;;;;;2.78;1.25;;;;;;;25.10;58.13;100925.06;5035029;28;20041;-68
2022/07/31 10:01:30;;;;;;;1.17;0.68;;;;;;;25.17;55.35;100935.84;5026330;28;20021;-68
2022/07/31 10:03:59;;;;;;;1.20;0.82;;;;;;;25.10;56.73;100932.56;5035708;28;20148;-68
2022/07/31 10:06:28;;;;;;;1.25;1.02;;;;;;;25.19;56.06;100913.31;5047315;28;20566;-68
2022/07/31 10:08:54;;;;;;;1.30;0.88;;;;;;;25.35;57.05;100929.69;5033039;28;20361;-68
2022/07/31 10:11:24;;;;;;;1.33;1.00;;;;;;;25.78;57.34;100922.16;5031104;28;20040;-68
2022/07/31 10:14:01;;;;;;;1.10;0.90;;;;;;;25.96;56.88;100918.72;5030701;28;20036;-68
2022/07/31 10:16:31;;;;;;;3.05;1.30;;;;;;;26.21;55.65;100917.81;5030157;28;20120;-68
2022/07/31 10:19:36;;;;;;;1.08;0.98;;;;;;;26.13;56.26;100913.78;5027027;28;20046;-68
2022/07/31 10:22:45;;;;;;;1.63;0.85;;;;;;;25.81;54.79;100906.69;5023152;28;20053;-68
2022/07/31 10:25:21;;;;;;;1.60;0.98;;;;;;;26.26;55.17;100906.16;5040171;28;20037;-68
2022/07/31 10:27:47;;;;;;;1.40;0.90;;;;;;;26.56;53.21;100905.28;5010558;28;20103;-68
2022/07/31 10:30:14;;;;;;;1.83;1.05;;;;;;;26.91;53.46;100897.50;5043421;28;20025;-68
2022/07/31 10:32:44;;;;;;;1.35;0.68;;;;;;;27.25;53.67;100888.91;5045179;28;20025;-68
2022/07/31 10:35:25;;;;;;;0.93;0.80;;;;;;;27.40;53.24;100893.38;5040676;28;20041;-68
2022/07/31 10:38:26;;;;;;;7.53;1.48;;;;;;;27.20;50.87;100893.06;5021948;28;20121;-69
2022/07/31 10:41:50;;;;;;;1.38;0.98;;;;;;;27.13;50.87;100889.84;5022361;28;20034;-68
2022/07/31 10:44:32;;;;;;;1.33;1.02;;;;;;;27.12;51.40;100880.75;5006689;28;20041;-68
2022/07/31 10:47:17;;;;;;;0.70;0.70;;;;;;;27.42;51.66;100876.28;5028268;28;20038;-68
2022/07/31 10:50:04;;;;;;;1.60;1.15;;;;;;;27.61;51.54;100881.31;5014062;28;20041;-68
2022/07/31 10:52:48;;;;;;;1.00;0.90;;;;;;;27.53;51.50;100874.56;5031070;28;20110;-68
2022/07/31 10:55:21;;;;;;;2.58;0.90;;;;;;;27.63;50.54;100873.31;5029353;28;20045;-68
2022/07/31 10:58:14;;;;;;;2.60;0.80;;;;;;;27.90;51.84;100869.66;5026070;28;20416;-68
2022/07/31 11:00:51;;;;;;;1.10;0.77;;;;;;;28.18;51.75;100873.09;5023593;28;20045;-68
2022/07/31 11:03:45;;;;;;;1.00;0.77;;;;;;;28.36;50.06;100873.75;5029585;28;20037;-68
2022/07/31 11:06:42;;;;;;;1.10;1.00;;;;;;;28.43;48.77;100870.66;5023578;28;20267;-68
2022/07/31 11:09:27;;;;;;;1.77;1.10;;;;;;;28.70;48.54;100874.47;5028369;28;20171;-68
2022/07/31 11:12:19;;;;;;;1.98;0.80;;;;;;;28.72;47.85;100874.78;5044770;28;20097;-68
2022/07/31 11:15:03;;;;;;;1.15;0.90;;;;;;;28.75;48.09;100862.72;5029106;28;20139;-68
2022/07/31 11:17:38;;;;;;;0.80;0.80;;;;;;;28.48;45.60;100858.13;5026461;28;20033;-69
2022/07/31 11:20:30;;;;;;;0.80;0.70;;;;;;;28.31;46.94;100855.00;5028704;28;20036;-68
2022/07/31 11:23:02;;;;;;;3.72;0.90;;;;;;;28.59;47.41;100847.28;5027291;28;20067;-68
2022/07/31 11:25:30;;;;;;;1.10;0.80;;;;;;;28.25;47.15;100848.59;5040992;28;20038;-68
2022/07/31 11:28:11;;;;;;;1.30;0.70;;;;;;;28.51;47.52;100846.84;5045335;28;20061;-68
2022/07/31 11:30:54;;;;;;;1.17;0.85;;;;;;;28.32;46.15;100839.16;5027283;28;20100;-68
2022/07/31 11:33:42;;;;;;;2.88;0.90;;;;;;;28.61;46.97;100833.72;5027318;28;20017;-68
2022/07/31 11:36:11;;;;;;;2.58;0.63;;;;;;;28.72;45.37;100838.72;5021632;28;20025;-68
2022/07/31 11:38:40;;;;;;;1.25;0.75;;;;;;;28.78;47.37;100834.06;5038697;28;20051;-68
2022/07/31 11:41:06;;;;;;;1.00;0.80;;;;;;;28.81;46.16;100831.09;5019137;28;20489;-68
2022/07/31 11:43:33;;;;;;;1.13;0.77;;;;;;;28.88;47.12;100830.72;5036345;28;20043;-68
2022/07/31 11:46:01;;;;;;;1.25;0.93;;;;;;;29.02;46.77;100823.66;5017389;28;20037;-68
2022/07/31 11:48:30;;;;;;;2.13;0.82;;;;;;;28.97;46.11;100830.63;5016803;28;20069;-68